US Aviators Van Nuys Flight School Los Angeles Pilot school at Van Nuys Simulator Flight Training Profesional Pilot Instruction Learn to Fly

U.S. Aviators

Learn to fly here! (818) 779-2105

Weather at Van Nuys Airport

Observed:Sat Aug 1, 01:51 PDT
Age:53 min ago
Wind:ESE at 2 mph
Visibility:10 miles
Clouds:Clear skies
Temperature:72°F (22°C)
Dewpoint:64°F (18°C)
Humidity:78%
Barometer:1015 hPa (29.97 in Hg)

METAR

KVNY 010851Z 11003KT 10SM CLR 22/18 A2997 RMK AO2 SLP136 T02220178 55000